Wetterstation Vordersexau
Wetterdaten: Woche 05.06.17 - 11.06.17 (KW23)
Datum Zeit Temp. A. Feuchte A. Luftdruck Regen Wind Richtung Taupunkt Windchill Windben
05.06.2017 00:00 11,2 C 82 % 1014,4 hPa 0,0 l/m 0,0 km/h O-NO 8,2 C 11,2 C 0,0 km/h
05.06.2017 01:00 11,6 C 83 % 1014,6 hPa 0,0 l/m 0,0 km/h O-SO 8,8 C 11,6 C 0,0 km/h
05.06.2017 02:00 12,2 C 83 % 1013,7 hPa 0,0 l/m 0,0 km/h O-SO 9,4 C 12,2 C 0,0 km/h
05.06.2017 03:00 11,6 C 83 % 1013,5 hPa 0,0 l/m 0,0 km/h O-SO 8,8 C 11,6 C 0,0 km/h
05.06.2017 04:00 12,3 C 84 % 1013,6 hPa 0,0 l/m 0,0 km/h O-SO 9,7 C 12,3 C 0,0 km/h
05.06.2017 05:00 12,5 C 83 % 1013,3 hPa 0,0 l/m 0,0 km/h O-SO 9,7 C 12,5 C 0,0 km/h
05.06.2017 06:00 13,0 C 84 % 1013,4 hPa 0,0 l/m 0,0 km/h SO 10,4 C 13,0 C 0,0 km/h
05.06.2017 07:00 13,9 C 83 % 1013,6 hPa 0,0 l/m 0,0 km/h SO 11,1 C 13,9 C 0,0 km/h
05.06.2017 08:00 14,8 C 81 % 1013,5 hPa 0,0 l/m 0,0 km/h SO 11,6 C 14,8 C 0,0 km/h
05.06.2017 09:00 15,1 C 80 % 1013,3 hPa 0,0 l/m 0,0 km/h O-SO 11,7 C 15,1 C 0,0 km/h
05.06.2017 10:00 16,5 C 76 % 1013,0 hPa 0,0 l/m 0,0 km/h NO 12,3 C 16,5 C 0,0 km/h
05.06.2017 11:00 18,5 C 69 % 1012,8 hPa 0,0 l/m 0,0 km/h O-NO 12,7 C 18,5 C 0,0 km/h
05.06.2017 12:00 21,3 C 58 % 1012,6 hPa 0,0 l/m 0,0 km/h SO 12,7 C 21,3 C 0,0 km/h
05.06.2017 13:00 21,9 C 50 % 1011,9 hPa 0,0 l/m 0,0 km/h W-NW 11,0 C 21,9 C 0,0 km/h
05.06.2017 14:00 24,8 C 41 % 1011,3 hPa 0,0 l/m 0,0 km/h W-SW 10,6 C 24,8 C 0,0 km/h
05.06.2017 15:00 25,4 C 42 % 1011,0 hPa 0,0 l/m 0,0 km/h W 11,5 C 25,4 C 0,0 km/h
05.06.2017 16:00 28,1 C 36 % 1010,5 hPa 0,0 l/m 0,0 km/h W 11,6 C 28,1 C 0,0 km/h
05.06.2017 17:00 28,3 C 38 % 1010,0 hPa 0,0 l/m 0,0 km/h SW 12,6 C 28,3 C 0,0 km/h
05.06.2017 18:00 28,2 C 38 % 1009,2 hPa 0,0 l/m 0,0 km/h W-SW 12,5 C 28,2 C 0,0 km/h
05.06.2017 19:00 21,4 C 48 % 1008,8 hPa 0,0 l/m 0,0 km/h W-SW 9,9 C 21,4 C 0,0 km/h
05.06.2017 20:00 18,1 C 59 % 1008,4 hPa 0,0 l/m 0,0 km/h N 10,0 C 18,1 C 0,0 km/h
05.06.2017 21:00 14,6 C 70 % 1008,4 hPa 0,0 l/m 0,0 km/h N-NO 9,2 C 14,6 C 0,0 km/h
05.06.2017 22:00 12,9 C 76 % 1008,1 hPa 0,0 l/m 0,0 km/h N-NO 8,8 C 12,9 C 0,0 km/h
05.06.2017 23:00 12,0 C 79 % 1007,3 hPa 0,0 l/m 0,0 km/h SO 8,5 C 12,0 C 0,0 km/h
06.06.2017 00:00 11,6 C 82 % 1006,6 hPa 0,0 l/m 0,0 km/h O-SO 8,6 C 11,6 C 0,0 km/h
06.06.2017 01:00 10,9 C 83 % 1005,7 hPa 0,0 l/m 0,0 km/h O-SO 8,1 C 10,9 C 0,0 km/h
06.06.2017 02:00 10,4 C 84 % 1005,0 hPa 0,0 l/m 0,0 km/h O-SO 7,8 C 10,4 C 0,0 km/h
06.06.2017 03:00 9,8 C 84 % 1004,1 hPa 0,0 l/m 0,0 km/h O-NO 7,2 C 9,8 C 0,0 km/h
06.06.2017 04:00 9,8 C 84 % 1003,7 hPa 0,0 l/m 0,0 km/h O-NO 7,2 C 9,8 C 0,0 km/h
06.06.2017 05:00 9,8 C 84 % 1003,1 hPa 0,0 l/m 0,0 km/h O-SO 7,2 C 9,8 C 0,0 km/h
06.06.2017 06:00 11,9 C 82 % 1003,3 hPa 0,0 l/m 0,0 km/h SO 8,9 C 11,9 C 0,0 km/h
06.06.2017 07:00 15,9 C 82 % 1003,0 hPa 0,0 l/m 0,0 km/h W 12,8 C 15,9 C 0,0 km/h
06.06.2017 08:00 19,2 C 72 % 1003,3 hPa 0,0 l/m 4,5 km/h SW 14,0 C 19,2 C 2,5 km/h
06.06.2017 09:00 15,1 C 78 % 1003,9 hPa 0,0 l/m 26,6 km/h W 11,3 C 8,4 C 14,8 km/h
06.06.2017 10:00 16,7 C 77 % 1003,9 hPa 0,0 l/m 0,0 km/h W-SW 12,6 C 16,7 C 0,0 km/h
06.06.2017 11:00 15,8 C 80 % 1004,5 hPa 0,5 l/m 20,1 km/h W-SW 12,4 C 10,8 C 11,2 km/h
06.06.2017 12:00 14,2 C 83 % 1005,2 hPa 0,5 l/m 0,0 km/h S-SW 11,4 C 14,2 C 0,0 km/h
06.06.2017 13:00 17,8 C 77 % 1004,6 hPa 0,0 l/m 3,2 km/h W-SW 13,7 C 17,8 C 1,8 km/h
06.06.2017 14:00 19,8 C 63 % 1004,9 hPa 0,0 l/m 34,3 km/h W 12,5 C 14,0 C 19,1 km/h
06.06.2017 15:00 20,1 C 50 % 1005,7 hPa 0,0 l/m 14,3 km/h W 9,3 C 17,5 C 7,9 km/h
06.06.2017 16:00 21,8 C 45 % 1006,6 hPa 0,0 l/m 23,3 km/h W-NW 9,3 C 18,0 C 13,0 km/h
06.06.2017 17:00 19,1 C 49 % 1007,6 hPa 0,0 l/m 23,3 km/h W-SW 8,1 C 14,4 C 13,0 km/h
06.06.2017 18:00 16,8 C 52 % 1008,2 hPa 0,0 l/m 23,3 km/h SO 6,9 C 11,4 C 13,0 km/h
06.06.2017 19:00 11,6 C 80 % 1009,8 hPa 5,2 l/m 0,0 km/h NO 8,3 C 11,6 C 0,0 km/h
06.06.2017 20:00 11,4 C 83 % 1010,0 hPa 0,0 l/m 0,0 km/h O-SO 8,6 C 11,4 C 0,0 km/h
06.06.2017 21:00 8,9 C 84 % 1011,7 hPa 1,0 l/m 0,0 km/h SO 6,3 C 8,9 C 0,0 km/h
06.06.2017 22:00 9,3 C 84 % 1012,3 hPa 0,0 l/m 0,0 km/h O 6,7 C 9,3 C 0,0 km/h
06.06.2017 23:00 9,1 C 84 % 1012,2 hPa 0,0 l/m 0,0 km/h S 6,5 C 9,1 C 0,0 km/h
07.06.2017 00:00 9,9 C 84 % 1012,2 hPa 0,0 l/m 8,4 km/h S 7,3 C 8,5 C 4,7 km/h
07.06.2017 01:00 10,6 C 84 % 1012,4 hPa 0,0 l/m 9,7 km/h S-SW 8,0 C 8,4 C 5,4 km/h
07.06.2017 02:00 10,7 C 81 % 1012,6 hPa 0,0 l/m 32,4 km/h W-SW 7,6 C 1,2 C 18,0 km/h
07.06.2017 03:00 10,9 C 82 % 1012,7 hPa 0,0 l/m 8,4 km/h W-SW 7,9 C 9,5 C 4,7 km/h
07.06.2017 04:00 10,9 C 83 % 1013,1 hPa 0,0 l/m 20,7 km/h SW 8,1 C 4,2 C 11,5 km/h
07.06.2017 05:00 10,8 C 83 % 1013,4 hPa 0,0 l/m 13,0 km/h S-SW 8,0 C 7,0 C 7,2 km/h
07.06.2017 06:00 10,4 C 84 % 1014,4 hPa 0,0 l/m 22,7 km/h W-SW 7,8 C 3,0 C 12,6 km/h
07.06.2017 07:00 10,4 C 84 % 1015,3 hPa 0,0 l/m 1,3 km/h S-SW 7,8 C 10,4 C 0,7 km/h
07.06.2017 08:00 10,9 C 84 % 1015,5 hPa 0,0 l/m 5,2 km/h S 8,3 C 10,9 C 2,9 km/h
07.06.2017 09:00 11,4 C 83 % 1016,0 hPa 0,0 l/m 5,8 km/h S-SO 8,6 C 11,4 C 3,2 km/h
07.06.2017 10:00 13,5 C 79 % 1016,3 hPa 0,0 l/m 6,5 km/h SW 9,9 C 13,5 C 3,6 km/h
07.06.2017 11:00 17,0 C 64 % 1016,5 hPa 0,0 l/m 32,4 km/h W-NW 10,1 C 10,2 C 18,0 km/h
07.06.2017 12:00 17,7 C 59 % 1016,7 hPa 0,0 l/m 27,9 km/h SW 9,6 C 11,8 C 15,5 km/h
07.06.2017 13:00 16,9 C 61 % 1017,3 hPa 0,0 l/m 11,7 km/h W 9,3 C 14,6 C 6,5 km/h
07.06.2017 14:00 18,6 C 54 % 1017,4 hPa 0,0 l/m 20,7 km/h W 9,1 C 14,3 C 11,5 km/h
07.06.2017 15:00 19,3 C 55 % 1017,5 hPa 0,0 l/m 35,0 km/h SW 10,0 C 13,2 C 19,4 km/h
07.06.2017 16:00 21,1 C 51 % 1017,5 hPa 0,0 l/m 24,0 km/h W 10,6 C 17,0 C 13,3 km/h
07.06.2017 17:00 20,9 C 48 % 1017,5 hPa 0,0 l/m 24,0 km/h W 9,5 C 16,7 C 13,3 km/h
07.06.2017 18:00 19,1 C 47 % 1017,8 hPa 0,0 l/m 11,0 km/h W-SW 7,5 C 17,3 C 6,1 km/h
07.06.2017 19:00 17,1 C 50 % 1018,1 hPa 0,0 l/m 13,0 km/h W 6,6 C 14,4 C 7,2 km/h
07.06.2017 20:00 15,3 C 56 % 1018,3 hPa 0,0 l/m 0,0 km/h S 6,6 C 15,3 C 0,0 km/h
07.06.2017 21:00 12,2 C 64 % 1019,0 hPa 0,0 l/m 0,0 km/h NO 5,6 C 12,2 C 0,0 km/h
07.06.2017 22:00 9,9 C 74 % 1018,9 hPa 0,0 l/m 0,0 km/h NO 5,5 C 9,9 C 0,0 km/h
07.06.2017 23:00 8,7 C 78 % 1019,2 hPa 0,0 l/m 0,0 km/h O-SO 5,1 C 8,7 C 0,0 km/h
08.06.2017 00:00 7,8 C 82 % 1019,0 hPa 0,0 l/m 0,0 km/h O-SO 4,9 C 7,8 C 0,0 km/h
08.06.2017 01:00 7,3 C 83 % 1018,9 hPa 0,0 l/m 0,0 km/h O-SO 4,6 C 7,3 C 0,0 km/h
08.06.2017 02:00 7,1 C 84 % 1018,8 hPa 0,0 l/m 0,0 km/h SO 4,6 C 7,1 C 0,0 km/h
08.06.2017 03:00 6,8 C 85 % 1018,8 hPa 0,0 l/m 0,0 km/h SO 4,5 C 6,8 C 0,0 km/h
08.06.2017 04:00 6,6 C 85 % 1018,6 hPa 0,0 l/m 0,0 km/h O-SO 4,3 C 6,6 C 0,0 km/h
08.06.2017 05:00 6,9 C 85 % 1018,6 hPa 0,0 l/m 0,0 km/h SO 4,6 C 6,9 C 0,0 km/h
08.06.2017 06:00 8,9 C 84 % 1018,6 hPa 0,0 l/m 0,0 km/h SO 6,3 C 8,9 C 0,0 km/h
08.06.2017 07:00 12,4 C 82 % 1018,3 hPa 0,0 l/m 0,0 km/h SO 9,4 C 12,4 C 0,0 km/h
08.06.2017 08:00 18,8 C 65 % 1018,0 hPa 0,0 l/m 0,0 km/h W-NW 12,1 C 18,8 C 0,0 km/h
08.06.2017 09:00 20,9 C 57 % 1017,8 hPa 0,0 l/m 0,0 km/h W 12,1 C 20,9 C 0,0 km/h
08.06.2017 10:00 23,6 C 46 % 1017,4 hPa 0,0 l/m 0,0 km/h N 11,3 C 23,6 C 0,0 km/h
08.06.2017 11:00 23,9 C 42 % 1016,9 hPa 0,0 l/m 7,8 km/h W-NW 10,2 C 23,5 C 4,3 km/h
08.06.2017 12:00 24,0 C 45 % 1016,3 hPa 0,0 l/m 0,0 km/h S-SW 11,3 C 24,0 C 0,0 km/h
08.06.2017 13:00 24,9 C 46 % 1015,9 hPa 0,0 l/m 0,0 km/h S 12,5 C 24,9 C 0,0 km/h
08.06.2017 14:00 26,3 C 44 % 1015,5 hPa 0,0 l/m 0,0 km/h W 13,1 C 26,3 C 0,0 km/h
08.06.2017 15:00 26,9 C 42 % 1014,7 hPa 0,0 l/m 1,3 km/h S-SW 12,9 C 26,9 C 0,7 km/h
08.06.2017 16:00 30,4 C 38 % 1014,0 hPa 0,0 l/m 0,0 km/h NW 14,5 C 30,4 C 0,0 km/h
08.06.2017 17:00 33,9 C 27 % 1013,5 hPa 0,0 l/m 0,0 km/h W 12,2 C 33,9 C 0,0 km/h
08.06.2017 18:00 34,8 C 24 % 1013,0 hPa 0,0 l/m 0,0 km/h W 11,2 C 34,8 C 0,0 km/h
08.06.2017 19:00 24,9 C 37 % 1012,9 hPa 0,0 l/m 0,0 km/h N-NO 9,2 C 24,9 C 0,0 km/h
08.06.2017 20:00 20,2 C 51 % 1012,7 hPa 0,0 l/m 0,0 km/h SO 9,7 C 20,2 C 0,0 km/h
08.06.2017 21:00 15,6 C 61 % 1012,9 hPa 0,0 l/m 0,0 km/h O-SO 8,1 C 15,6 C 0,0 km/h
08.06.2017 22:00 14,1 C 67 % 1012,6 hPa 0,0 l/m 0,0 km/h O 8,1 C 14,1 C 0,0 km/h
08.06.2017 23:00 13,4 C 71 % 1012,4 hPa 0,0 l/m 0,0 km/h O 8,3 C 13,4 C 0,0 km/h
09.06.2017 00:00 12,9 C 73 % 1011,3 hPa 0,0 l/m 0,0 km/h O 8,2 C 12,9 C 0,0 km/h
09.06.2017 01:00 12,9 C 74 % 1010,8 hPa 0,0 l/m 0,0 km/h O 8,4 C 12,9 C 0,0 km/h
09.06.2017 02:00 12,1 C 74 % 1011,1 hPa 0,0 l/m 0,0 km/h O 7,6 C 12,1 C 0,0 km/h
09.06.2017 03:00 11,1 C 78 % 1010,1 hPa 0,0 l/m 0,0 km/h O 7,4 C 11,1 C 0,0 km/h
09.06.2017 04:00 10,1 C 79 % 1009,7 hPa 0,0 l/m 0,0 km/h O 6,6 C 10,1 C 0,0 km/h
09.06.2017 05:00 9,6 C 80 % 1010,4 hPa 0,0 l/m 0,0 km/h O 6,3 C 9,6 C 0,0 km/h
09.06.2017 06:00 11,9 C 81 % 1010,2 hPa 0,0 l/m 0,0 km/h O-SO 8,7 C 11,9 C 0,0 km/h
09.06.2017 07:00 17,2 C 70 % 1011,0 hPa 0,0 l/m 0,0 km/h S-SW 11,7 C 17,2 C 0,0 km/h
09.06.2017 08:00 21,1 C 59 % 1011,9 hPa 0,0 l/m 0,0 km/h W 12,8 C 21,1 C 0,0 km/h
09.06.2017 09:00 21,9 C 56 % 1012,1 hPa 0,0 l/m 16,8 km/h S-SW 12,7 C 19,2 C 9,4 km/h
09.06.2017 10:00 23,2 C 56 % 1012,7 hPa 0,0 l/m 22,7 km/h W-SW 13,9 C 20,0 C 12,6 km/h
09.06.2017 11:00 22,4 C 61 % 1013,2 hPa 0,0 l/m 6,5 km/h W 14,5 C 22,4 C 3,6 km/h
09.06.2017 12:00 21,9 C 62 % 1013,7 hPa 0,0 l/m 13,6 km/h S 14,3 C 19,8 C 7,6 km/h
09.06.2017 13:00 20,8 C 67 % 1013,4 hPa 0,0 l/m 1,9 km/h S-SW 14,4 C 20,8 C 1,1 km/h
09.06.2017 14:00 23,4 C 65 % 1013,8 hPa 0,0 l/m 0,0 km/h W-SW 16,4 C 23,4 C 0,0 km/h
09.06.2017 15:00 22,9 C 56 % 1013,8 hPa 0,0 l/m 1,3 km/h W-SW 13,6 C 22,9 C 0,7 km/h
09.06.2017 16:00 23,9 C 54 % 1013,4 hPa 0,0 l/m 11,7 km/h W-SW 14,0 C 22,6 C 6,5 km/h
09.06.2017 17:00 27,4 C 48 % 1012,8 hPa 0,0 l/m 7,1 km/h S-SO 15,4 C 27,3 C 4,0 km/h
09.06.2017 18:00 22,3 C 61 % 1012,4 hPa 0,0 l/m 0,0 km/h N-NO 14,4 C 22,3 C 0,0 km/h
09.06.2017 19:00 16,8 C 77 % 1014,3 hPa 0,0 l/m 0,0 km/h W 12,7 C 16,8 C 0,0 km/h
09.06.2017 20:00 15,5 C 82 % 1015,4 hPa 2,1 l/m 0,0 km/h O-SO 12,4 C 15,5 C 0,0 km/h
09.06.2017 21:00 15,1 C 83 % 1015,4 hPa 1,0 l/m 0,0 km/h O-SO 12,2 C 15,1 C 0,0 km/h
09.06.2017 22:00 14,5 C 83 % 1015,8 hPa 0,0 l/m 0,0 km/h O-SO 11,6 C 14,5 C 0,0 km/h
09.06.2017 23:00 14,6 C 83 % 1016,2 hPa 0,0 l/m 0,0 km/h O-SO 11,7 C 14,6 C 0,0 km/h
10.06.2017 00:00 14,5 C 82 % 1016,6 hPa 0,0 l/m 0,0 km/h O-NO 11,5 C 14,5 C 0,0 km/h
10.06.2017 01:00 14,3 C 82 % 1016,9 hPa 0,0 l/m 0,0 km/h O-NO 11,3 C 14,3 C 0,0 km/h
10.06.2017 02:00 13,3 C 82 % 1017,1 hPa 0,0 l/m 0,0 km/h SO 10,3 C 13,3 C 0,0 km/h
10.06.2017 03:00 12,2 C 82 % 1017,1 hPa 0,0 l/m 0,0 km/h SO 9,2 C 12,2 C 0,0 km/h
10.06.2017 04:00 12,1 C 81 % 1017,5 hPa 0,0 l/m 0,0 km/h SO 8,9 C 12,1 C 0,0 km/h
10.06.2017 05:00 11,8 C 80 % 1017,8 hPa 0,0 l/m 0,0 km/h O-SO 8,5 C 11,8 C 0,0 km/h
10.06.2017 06:00 13,9 C 77 % 1018,0 hPa 0,0 l/m 0,0 km/h O-SO 9,9 C 13,9 C 0,0 km/h
10.06.2017 07:00 15,7 C 81 % 1018,2 hPa 0,0 l/m 0,0 km/h SO 12,4 C 15,7 C 0,0 km/h
10.06.2017 08:00 21,9 C 80 % 1018,8 hPa 0,0 l/m 0,0 km/h W-NW 18,3 C 21,9 C 0,0 km/h
10.06.2017 09:00 25,2 C 63 % 1018,9 hPa 0,0 l/m 0,0 km/h W 17,6 C 25,2 C 0,0 km/h
10.06.2017 10:00 25,6 C 60 % 1019,2 hPa 0,0 l/m 0,0 km/h O-SO 17,2 C 25,6 C 0,0 km/h
10.06.2017 11:00 25,4 C 54 % 1019,0 hPa 0,0 l/m 0,0 km/h N-NO 15,4 C 25,4 C 0,0 km/h
10.06.2017 12:00 26,0 C 53 % 1018,7 hPa 0,0 l/m 0,0 km/h SW 15,7 C 26,0 C 0,0 km/h
10.06.2017 13:00 26,6 C 51 % 1018,3 hPa 0,0 l/m 22,7 km/h W 15,6 C 24,5 C 12,6 km/h
10.06.2017 14:00 27,5 C 46 % 1017,7 hPa 0,0 l/m 4,5 km/h W-SW 14,8 C 27,5 C 2,5 km/h
10.06.2017 15:00 26,9 C 47 % 1017,5 hPa 0,0 l/m 0,0 km/h W 14,6 C 26,9 C 0,0 km/h
10.06.2017 16:00 30,0 C 38 % 1017,2 hPa 0,0 l/m 0,0 km/h W 14,1 C 30,0 C 0,0 km/h
10.06.2017 17:00 31,6 C 33 % 1017,0 hPa 0,0 l/m 0,0 km/h W 13,3 C 31,6 C 0,0 km/h
10.06.2017 18:00 30,9 C 34 % 1017,1 hPa 0,0 l/m 0,0 km/h N 13,2 C 30,9 C 0,0 km/h
10.06.2017 19:00 24,3 C 42 % 1017,1 hPa 0,0 l/m 0,0 km/h N 10,6 C 24,3 C 0,0 km/h
10.06.2017 20:00 21,6 C 55 % 1017,2 hPa 0,0 l/m 0,0 km/h N 12,2 C 21,6 C 0,0 km/h
10.06.2017 21:00 16,9 C 67 % 1017,8 hPa 0,0 l/m 0,0 km/h N 10,7 C 16,9 C 0,0 km/h
10.06.2017 22:00 14,8 C 74 % 1018,0 hPa 0,0 l/m 0,0 km/h N 10,2 C 14,8 C 0,0 km/h
10.06.2017 23:00 13,8 C 77 % 1018,3 hPa 0,0 l/m 0,0 km/h N 9,8 C 13,8 C 0,0 km/h
11.06.2017 00:00 13,3 C 80 % 1018,2 hPa 0,0 l/m 0,0 km/h O 9,9 C 13,3 C 0,0 km/h
11.06.2017 01:00 13,3 C 81 % 1018,2 hPa 0,0 l/m 0,0 km/h O-NO 10,1 C 13,3 C 0,0 km/h
11.06.2017 02:00 12,5 C 82 % 1017,5 hPa 0,0 l/m 0,0 km/h NO 9,5 C 12,5 C 0,0 km/h
11.06.2017 03:00 11,6 C 83 % 1017,5 hPa 0,0 l/m 0,0 km/h O-NO 8,8 C 11,6 C 0,0 km/h
11.06.2017 04:00 11,2 C 84 % 1017,1 hPa 0,0 l/m 0,0 km/h NO 8,6 C 11,2 C 0,0 km/h
11.06.2017 05:00 11,1 C 84 % 1017,4 hPa 0,0 l/m 0,0 km/h NO 8,5 C 11,1 C 0,0 km/h
11.06.2017 06:00 12,5 C 84 % 1017,0 hPa 0,0 l/m 0,0 km/h O-NO 9,9 C 12,5 C 0,0 km/h
11.06.2017 07:00 17,8 C 83 % 1016,7 hPa 0,0 l/m 0,0 km/h NW 14,9 C 17,8 C 0,0 km/h
11.06.2017 08:00 27,3 C 53 % 1016,5 hPa 0,0 l/m 0,0 km/h W-NW 16,9 C 27,3 C 0,0 km/h
11.06.2017 09:00 27,8 C 48 % 1015,9 hPa 0,0 l/m 0,0 km/h NW 15,8 C 27,8 C 0,0 km/h
11.06.2017 10:00 28,2 C 49 % 1015,9 hPa 0,0 l/m 0,0 km/h W-SW 16,5 C 28,2 C 0,0 km/h
11.06.2017 11:00 28,3 C 52 % 1015,4 hPa 0,0 l/m 0,0 km/h N-NO 17,5 C 28,3 C 0,0 km/h
11.06.2017 12:00 28,8 C 48 % 1014,9 hPa 0,0 l/m 0,0 km/h W-NW 16,7 C 28,8 C 0,0 km/h
11.06.2017 13:00 30,8 C 47 % 1014,1 hPa 0,0 l/m 0,0 km/h W-NW 18,2 C 30,8 C 0,0 km/h
11.06.2017 14:00 32,4 C 43 % 1013,4 hPa 0,0 l/m 0,0 km/h S 18,2 C 32,4 C 0,0 km/h
11.06.2017 15:00 32,1 C 44 % 1013,2 hPa 0,0 l/m 0,0 km/h SO 18,3 C 32,1 C 0,0 km/h
11.06.2017 16:00 35,9 C 40 % 1012,8 hPa 0,0 l/m 2,6 km/h W 20,1 C 35,9 C 1,4 km/h
11.06.2017 17:00 31,8 C 42 % 1012,5 hPa 0,0 l/m 0,0 km/h W 17,3 C 31,8 C 0,0 km/h
11.06.2017 18:00 34,1 C 45 % 1012,1 hPa 0,0 l/m 0,0 km/h O-SO 20,4 C 34,1 C 0,0 km/h
11.06.2017 19:00 28,1 C 60 % 1011,6 hPa 0,0 l/m 0,0 km/h NO 19,6 C 28,1 C 0,0 km/h
11.06.2017 20:00 24,4 C 67 % 1011,8 hPa 0,0 l/m 0,0 km/h N-NO 17,9 C 24,4 C 0,0 km/h
11.06.2017 21:00 21,3 C 73 % 1012,2 hPa 0,0 l/m 0,0 km/h N-NO 16,3 C 21,3 C 0,0 km/h
11.06.2017 22:00 20,4 C 76 % 1012,7 hPa 0,0 l/m 0,0 km/h O-NO 16,0 C 20,4 C 0,0 km/h
11.06.2017 23:00 18,9 C 79 % 1013,0 hPa 0,0 l/m 0,0 km/h O-SO 15,2 C 18,9 C 0,0 km/h
Min-Datum _ 08.06.17 08.06.17 06.06.17 - 05.06.17 - 08.06.17 07.06.17 05.06.17
_ Min-Zeit 04:56 18:56 07:56 - 00:56 - 04:56 02:56 00:56
Minimum _ 6,6 C 24 % 1003,0 hPa - 0,0 km/h - 4,3 C 1,2 C 0,0 km/h
Max-Datum _ 11.06.17 08.06.17 07.06.17 06.06.17 07.06.17 - 11.06.17 11.06.17 07.06.17
_ Max-Zeit 16:55 03:56 23:56 19:56 15:56 - 18:55 16:55 15:56
Maximum _ 35,9 C 85 % 1019,2 hPa 5,2 l/m 35,0 km/h
SW
- 20,4 C 35,9 C 19,4 km/h
SW
Durchschnitt _ 17,9 C 67 % 1013,6 hPa #10,4 l/m 3,7 km/h W 11,0 C 17,2 C 2,1 km/h
www.sexauwetter.de